Time;durP1;ratioP1;P1;durP2;ratioP2;P2;SDS_P1;SDS_P2;PMS_P1;PMS_P2;Temp;Humidity;BMP_temperature;BMP_pressure;BME280_temperature;BME280_humidity;BME280_pressure;Samples;Min_cycle;Max_cycle;Signal;HPM_P1;HPM_P2
2022/08/22 00:00:16;;;;;;;35.27;4.80;;;;;;;23.44;47.12;99664.91;31663771;28;20063;-75
2022/08/22 00:15:22;;;;;;;31.90;5.10;;;;;;;23.33;47.82;99684.41;31669952;28;20051;-76
2022/08/22 00:30:59;;;;;;;30.35;4.85;;;;;;;23.21;46.98;99685.75;31688526;28;20466;-75
2022/08/22 00:46:55;;;;;;;54.40;6.57;;;;;;;23.10;47.20;99688.63;31703685;28;20048;-74
2022/08/22 01:02:16;;;;;;;40.92;5.90;;;;;;;23.05;47.11;99697.72;31596605;27;20120;-77
2022/08/22 01:17:49;;;;;;;47.08;6.03;;;;;;;22.97;46.70;99699.53;31692190;28;20039;-76
2022/08/22 01:33:09;;;;;;;52.03;6.20;;;;;;;22.84;46.61;99697.34;31699590;28;20484;-75
2022/08/22 01:48:14;;;;;;;47.60;6.65;;;;;;;22.71;47.17;99703.41;31678411;27;20051;-74
2022/08/22 02:03:26;;;;;;;50.75;6.43;;;;;;;22.59;47.40;99696.47;31700407;27;20047;-76
2022/08/22 02:18:41;;;;;;;58.83;6.87;;;;;;;22.45;46.99;99705.81;31670935;28;20050;-74
2022/08/22 02:33:55;;;;;;;45.67;6.18;;;;;;;22.34;47.53;99714.16;31704057;27;20533;-75
2022/08/22 02:49:31;;;;;;;50.67;6.88;;;;;;;22.21;47.93;99702.88;31678056;28;20058;-77
2022/08/22 03:04:40;;;;;;;52.10;5.82;;;;;;;22.10;48.82;99706.44;31633899;27;20567;-76
2022/08/22 03:19:54;;;;;;;52.58;6.55;;;;;;;22.00;49.42;99725.31;31675951;28;20055;-76
2022/08/22 03:35:08;;;;;;;44.95;6.50;;;;;;;21.94;49.83;99726.56;31684611;28;20063;-75
2022/08/22 03:50:25;;;;;;;54.80;5.55;;;;;;;21.90;49.82;99729.59;31696023;28;20051;-75
2022/08/22 04:05:53;;;;;;;44.90;8.18;;;;;;;21.83;50.59;99754.22;31707960;28;20500;-75
2022/08/22 04:21:07;;;;;;;44.38;5.85;;;;;;;21.90;50.94;99770.28;31717853;28;20054;-75
2022/08/22 04:36:16;;;;;;;24.60;4.35;;;;;;;22.19;50.66;99780.06;31707497;27;20043;-76
2022/08/22 04:51:25;;;;;;;31.50;4.78;;;;;;;22.51;50.00;99792.28;31719825;27;20495;-76
2022/08/22 05:06:31;;;;;;;34.95;4.45;;;;;;;22.88;49.70;99793.94;31678903;27;20056;-76
2022/08/22 05:21:37;;;;;;;36.85;4.07;;;;;;;23.26;48.07;99790.19;31701664;28;20052;-76
2022/08/22 05:36:44;;;;;;;26.40;3.65;;;;;;;23.67;47.93;99794.97;31696798;27;20044;-76
2022/08/22 05:52:04;;;;;;;28.17;4.00;;;;;;;24.08;46.79;99795.63;31691212;27;20055;-77
2022/08/22 06:07:25;;;;;;;21.33;3.92;;;;;;;24.49;48.07;99800.25;31702732;27;20056;-77
2022/08/22 06:22:32;;;;;;;32.75;4.57;;;;;;;24.80;46.71;99807.22;31708989;27;20058;-77
2022/08/22 06:37:40;;;;;;;26.50;4.50;;;;;;;25.52;45.92;99801.94;31698576;28;20059;-76
2022/08/22 06:53:10;;;;;;;26.02;2.90;;;;;;;25.28;47.44;99816.69;31696633;27;20079;-76
2022/08/22 07:08:15;;;;;;;26.20;3.28;;;;;;;25.40;48.45;99816.00;31667659;28;20048;-76
2022/08/22 07:23:40;;;;;;;18.20;3.50;;;;;;;26.24;46.27;99813.88;31650425;28;20056;-72
2022/08/22 07:38:53;;;;;;;25.63;3.55;;;;;;;26.36;44.42;99809.66;31709098;27;20075;-77
2022/08/22 07:54:00;;;;;;;17.65;1.92;;;;;;;27.04;43.77;99827.28;31700144;27;20055;-83
2022/08/22 08:09:03;;;;;;;25.80;3.15;;;;;;;27.43;43.14;99839.59;31671887;27;20051;-83
2022/08/22 08:24:10;;;;;;;22.90;3.78;;;;;;;28.38;42.20;99840.06;31707663;27;20086;-76
2022/08/22 08:39:25;;;;;;;12.60;2.47;;;;;;;29.07;40.86;99830.75;31682742;27;20048;-74
2022/08/22 08:54:42;;;;;;;17.80;2.70;;;;;;;29.65;39.80;99814.53;31695529;27;20056;-83
2022/08/22 09:10:25;;;;;;;22.00;3.55;;;;;;;29.86;39.66;99799.06;31693825;27;20179;-84
2022/08/22 09:25:50;;;;;;;18.58;3.45;;;;;;;30.67;37.86;99808.47;31714808;27;20048;-77
2022/08/22 09:41:05;;;;;;;20.42;3.33;;;;;;;31.40;37.83;99812.06;31709502;27;20493;-83
2022/08/22 09:56:13;;;;;;;17.40;2.42;;;;;;;31.38;37.47;99811.91;31687634;27;20661;-72
2022/08/22 10:11:40;;;;;;;16.50;2.88;;;;;;;32.10;36.60;99816.59;31677160;27;20077;-72
2022/08/22 10:26:51;;;;;;;16.48;3.13;;;;;;;32.39;36.75;99807.69;31673529;27;20115;-72
2022/08/22 10:42:05;;;;;;;12.60;2.13;;;;;;;33.01;35.11;99794.44;31691985;27;20081;-72
2022/08/22 10:57:26;;;;;;;8.20;1.60;;;;;;;32.90;35.76;99811.81;31685242;27;20135;-73
2022/08/22 11:12:36;;;;;;;15.13;2.50;;;;;;;33.68;34.35;99810.91;31675321;27;20060;-73
2022/08/22 11:28:16;;;;;;;11.05;3.20;;;;;;;34.42;32.85;99801.03;31673950;28;20082;-74
2022/08/22 11:43:48;;;;;;;8.38;2.53;;;;;;;31.68;37.05;99798.97;31659873;28;20040;-72
2022/08/22 11:59:17;;;;;;;22.83;4.72;;;;;;;31.20;38.04;99783.00;31663160;28;20052;-83
2022/08/22 12:14:46;;;;;;;17.23;2.58;;;;;;;30.67;37.36;99786.06;31670557;27;20056;-77
2022/08/22 12:29:58;;;;;;;10.45;1.98;;;;;;;30.37;38.66;99802.94;31702425;27;20513;-82
2022/08/22 12:45:05;;;;;;;17.08;2.08;;;;;;;30.37;37.41;99814.13;31711758;27;20404;-90
2022/08/22 13:00:43;;;;;;;11.40;2.00;;;;;;;30.00;37.02;99822.00;31711033;27;20068;-90
2022/08/22 13:15:56;;;;;;;9.48;1.92;;;;;;;30.38;35.28;99815.63;31736084;27;20059;-80
2022/08/22 13:31:01;;;;;;;3.30;1.52;;;;;;;30.39;35.02;99800.31;31705502;27;20404;-75
2022/08/22 13:46:07;;;;;;;11.57;1.80;;;;;;;30.58;33.20;99800.66;31712366;27;20047;-75
2022/08/22 14:01:14;;;;;;;12.63;1.70;;;;;;;30.57;33.23;99804.03;31709256;27;20062;-75
2022/08/22 14:16:20;;;;;;;13.65;3.25;;;;;;;30.32;33.21;99798.28;31688624;28;20055;-75
2022/08/22 14:31:25;;;;;;;6.80;1.63;;;;;;;30.19;31.87;99794.38;31708494;27;20055;-75
2022/08/22 14:46:52;;;;;;;14.10;1.98;;;;;;;30.19;32.30;99783.19;31711768;28;20051;-75
2022/08/22 15:02:00;;;;;;;16.10;2.70;;;;;;;30.01;32.68;99789.91;31704542;28;20450;-76
2022/08/22 15:17:07;;;;;;;12.57;1.77;;;;;;;29.72;33.38;99783.03;31709349;28;20094;-74
2022/08/22 15:32:10;;;;;;;12.38;1.80;;;;;;;29.56;33.44;99795.50;31670322;28;20071;-88
2022/08/22 15:47:32;;;;;;;15.48;3.17;;;;;;;29.11;34.03;99794.06;31712610;28;20079;-84
2022/08/22 16:03:01;;;;;;;15.85;4.20;;;;;;;28.81;34.45;99803.88;31713870;27;20055;-79
2022/08/22 16:18:04;;;;;;;13.27;2.83;;;;;;;28.59;35.48;99814.88;31758479;27;20051;-83
2022/08/22 16:33:07;;;;;;;8.45;2.83;;;;;;;28.28;36.14;99813.97;31722254;27;20063;-86
2022/08/22 16:48:33;;;;;;;9.73;3.67;;;;;;;28.18;35.94;99822.06;31711521;27;20058;-73
2022/08/22 17:03:57;;;;;;;14.70;5.28;;;;;;;28.02;36.64;99831.63;31685148;27;20079;-76
2022/08/22 17:19:20;;;;;;;12.27;4.25;;;;;;;27.86;36.69;99819.59;31708180;27;20040;-73
2022/08/22 17:34:49;;;;;;;20.45;4.35;;;;;;;27.80;36.19;99827.34;31699018;28;20056;-72
2022/08/22 17:50:28;;;;;;;12.57;3.42;;;;;;;27.73;35.32;99828.00;31692554;27;20067;-77
2022/08/22 18:05:37;;;;;;;12.32;2.55;;;;;;;27.62;35.68;99831.09;31681694;27;20063;-74
2022/08/22 18:21:05;;;;;;;13.23;3.40;;;;;;;27.40;35.20;99833.06;31657156;28;20063;-75
2022/08/22 18:36:20;;;;;;;22.90;2.25;;;;;;;27.16;35.55;99834.09;31666223;27;20070;-73
2022/08/22 18:51:23;;;;;;;14.63;2.40;;;;;;;27.06;35.16;99824.69;31647911;28;20055;-73
2022/08/22 19:07:03;;;;;;;14.90;2.90;;;;;;;27.03;34.56;99838.94;31653458;28;20059;-74
2022/08/22 19:22:25;;;;;;;14.07;2.72;;;;;;;26.99;34.42;99858.78;31671803;27;20047;-74
2022/08/22 19:37:28;;;;;;;10.63;3.45;;;;;;;26.92;34.31;99864.25;31667669;27;20052;-74
2022/08/22 19:53:00;;;;;;;18.15;5.50;;;;;;;26.76;34.41;99874.41;31693536;27;20097;-72
2022/08/22 20:08:12;;;;;;;10.98;3.15;;;;;;;26.54;34.45;99872.81;31707504;27;20563;-75
2022/08/22 20:23:19;;;;;;;;;;;;;;;26.30;35.25;99878.56;31678910;27;20058;-71
2022/08/22 20:38:25;;;;;;;12.43;3.40;;;;;;;26.11;35.35;99884.91;31695829;27;19923;-72
2022/08/22 20:53:27;;;;;;;13.93;3.42;;;;;;;25.97;35.71;99891.72;31679085;27;20070;-72
2022/08/22 21:08:29;;;;;;;11.13;3.15;;;;;;;25.86;35.68;99897.47;31686721;27;20066;-72
2022/08/22 21:23:31;;;;;;;;;;;;;;;25.73;35.53;99911.31;31674462;27;20052;-72
2022/08/22 21:38:34;;;;;;;20.05;4.15;;;;;;;25.60;35.72;99914.75;31677892;27;19927;-71
2022/08/22 21:53:35;;;;;;;13.45;2.58;;;;;;;25.40;36.01;99906.94;31697084;27;20100;-72
2022/08/22 22:08:39;;;;;;;22.88;3.88;;;;;;;25.25;36.26;99921.28;31681770;27;20055;-72
2022/08/22 22:23:41;;;;;;;34.27;4.13;;;;;;;25.15;36.51;99931.25;31670992;27;20059;-73
2022/08/22 22:38:43;;;;;;;23.03;5.13;;;;;;;24.98;36.92;99939.78;31678275;27;20048;-72
2022/08/22 22:53:45;;;;;;;32.53;4.37;;;;;;;24.93;36.76;99942.59;31675562;27;20063;-73
2022/08/22 23:08:47;;;;;;;30.07;4.67;;;;;;;24.83;37.22;99953.28;31642813;28;20052;-72
2022/08/22 23:23:50;;;;;;;44.97;6.13;;;;;;;24.70;37.41;99978.91;31646130;28;20048;-72
2022/08/22 23:38:52;;;;;;;49.80;7.10;;;;;;;24.55;37.85;99981.31;31669718;28;20052;-72
2022/08/22 23:53:55;;;;;;;42.77;6.77;;;;;;;24.44;38.27;99998.03;31697740;28;20067;-72
